sensor_id;sensor_type;location;lat;lon;timestamp;P1;durP1;ratioP1;P2;durP2;ratioP2
25567;SDS011;13455;51.480;7.594;2023-08-30T00:01:11;6.67;;;5.03;;
25567;SDS011;13455;51.480;7.594;2023-08-30T00:03:37;8.30;;;5.23;;
25567;SDS011;13455;51.480;7.594;2023-08-30T00:06:03;8.02;;;5.45;;
25567;SDS011;13455;51.480;7.594;2023-08-30T00:08:29;7.75;;;5.50;;
25567;SDS011;13455;51.480;7.594;2023-08-30T00:10:55;8.15;;;5.80;;
25567;SDS011;13455;51.480;7.594;2023-08-30T00:13:23;8.77;;;5.93;;
25567;SDS011;13455;51.480;7.594;2023-08-30T00:15:50;9.25;;;6.22;;
25567;SDS011;13455;51.480;7.594;2023-08-30T00:18:16;7.10;;;5.90;;
25567;SDS011;13455;51.480;7.594;2023-08-30T00:20:43;10.25;;;6.38;;
25567;SDS011;13455;51.480;7.594;2023-08-30T00:23:09;7.95;;;6.15;;
25567;SDS011;13455;51.480;7.594;2023-08-30T00:25:35;7.88;;;6.00;;
25567;SDS011;13455;51.480;7.594;2023-08-30T00:28:00;9.70;;;6.33;;
25567;SDS011;13455;51.480;7.594;2023-08-30T00:30:26;8.83;;;6.10;;
25567;SDS011;13455;51.480;7.594;2023-08-30T00:32:51;9.35;;;6.32;;
25567;SDS011;13455;51.480;7.594;2023-08-30T00:35:17;10.17;;;6.30;;
25567;SDS011;13455;51.480;7.594;2023-08-30T00:37:43;10.07;;;6.40;;
25567;SDS011;13455;51.480;7.594;2023-08-30T00:40:08;8.55;;;5.75;;
25567;SDS011;13455;51.480;7.594;2023-08-30T00:42:34;10.70;;;6.00;;
25567;SDS011;13455;51.480;7.594;2023-08-30T00:45:00;10.68;;;6.00;;
25567;SDS011;13455;51.480;7.594;2023-08-30T00:47:26;10.43;;;6.50;;
25567;SDS011;13455;51.480;7.594;2023-08-30T00:49:52;8.80;;;6.43;;
25567;SDS011;13455;51.480;7.594;2023-08-30T00:52:18;9.82;;;7.10;;
25567;SDS011;13455;51.480;7.594;2023-08-30T00:54:44;11.35;;;7.50;;
25567;SDS011;13455;51.480;7.594;2023-08-30T00:57:10;10.57;;;7.80;;
25567;SDS011;13455;51.480;7.594;2023-08-30T00:59:36;10.77;;;7.60;;
25567;SDS011;13455;51.480;7.594;2023-08-30T01:02:02;9.43;;;7.47;;
25567;SDS011;13455;51.480;7.594;2023-08-30T01:04:29;8.63;;;6.82;;
25567;SDS011;13455;51.480;7.594;2023-08-30T01:06:56;10.20;;;6.90;;
25567;SDS011;13455;51.480;7.594;2023-08-30T01:09:23;10.63;;;7.50;;
25567;SDS011;13455;51.480;7.594;2023-08-30T01:12:00;9.38;;;7.93;;
25567;SDS011;13455;51.480;7.594;2023-08-30T01:14:57;9.98;;;7.80;;
25567;SDS011;13455;51.480;7.594;2023-08-30T01:17:19;12.68;;;8.63;;
25567;SDS011;13455;51.480;7.594;2023-08-30T01:19:49;11.48;;;8.60;;
25567;SDS011;13455;51.480;7.594;2023-08-30T01:28:07;12.18;;;8.60;;
25567;SDS011;13455;51.480;7.594;2023-08-30T01:30:34;13.73;;;9.37;;
25567;SDS011;13455;51.480;7.594;2023-08-30T01:33:02;11.70;;;9.23;;
25567;SDS011;13455;51.480;7.594;2023-08-30T01:35:29;12.02;;;8.60;;
25567;SDS011;13455;51.480;7.594;2023-08-30T01:37:58;12.05;;;8.95;;
25567;SDS011;13455;51.480;7.594;2023-08-30T01:40:24;10.90;;;8.98;;
25567;SDS011;13455;51.480;7.594;2023-08-30T01:42:51;11.93;;;9.35;;
25567;SDS011;13455;51.480;7.594;2023-08-30T01:45:17;12.23;;;9.50;;
25567;SDS011;13455;51.480;7.594;2023-08-30T01:47:44;12.60;;;9.05;;
25567;SDS011;13455;51.480;7.594;2023-08-30T01:50:11;13.52;;;9.73;;
25567;SDS011;13455;51.480;7.594;2023-08-30T01:52:37;14.85;;;9.55;;
25567;SDS011;13455;51.480;7.594;2023-08-30T01:55:04;13.43;;;9.50;;
25567;SDS011;13455;51.480;7.594;2023-08-30T01:57:30;14.68;;;9.98;;
25567;SDS011;13455;51.480;7.594;2023-08-30T01:59:56;13.23;;;9.85;;
25567;SDS011;13455;51.480;7.594;2023-08-30T02:02:21;13.13;;;9.85;;
25567;SDS011;13455;51.480;7.594;2023-08-30T02:04:47;12.57;;;10.50;;
25567;SDS011;13455;51.480;7.594;2023-08-30T02:07:14;15.53;;;11.03;;
25567;SDS011;13455;51.480;7.594;2023-08-30T02:12:14;13.93;;;10.40;;
25567;SDS011;13455;51.480;7.594;2023-08-30T02:14:42;13.20;;;9.98;;
25567;SDS011;13455;51.480;7.594;2023-08-30T02:17:16;15.38;;;10.13;;
25567;SDS011;13455;51.480;7.594;2023-08-30T02:19:43;13.68;;;10.45;;
25567;SDS011;13455;51.480;7.594;2023-08-30T02:22:10;15.40;;;10.55;;
25567;SDS011;13455;51.480;7.594;2023-08-30T02:24:36;13.93;;;10.77;;
25567;SDS011;13455;51.480;7.594;2023-08-30T02:27:02;15.07;;;10.75;;
25567;SDS011;13455;51.480;7.594;2023-08-30T02:29:28;13.20;;;10.80;;
25567;SDS011;13455;51.480;7.594;2023-08-30T02:31:54;15.40;;;10.93;;
25567;SDS011;13455;51.480;7.594;2023-08-30T02:34:19;13.57;;;10.90;;
25567;SDS011;13455;51.480;7.594;2023-08-30T02:36:45;16.33;;;12.00;;
25567;SDS011;13455;51.480;7.594;2023-08-30T02:39:11;15.98;;;11.60;;
25567;SDS011;13455;51.480;7.594;2023-08-30T02:41:37;14.65;;;11.55;;
25567;SDS011;13455;51.480;7.594;2023-08-30T02:44:07;14.05;;;11.23;;
25567;SDS011;13455;51.480;7.594;2023-08-30T02:46:36;13.85;;;11.20;;
25567;SDS011;13455;51.480;7.594;2023-08-30T02:49:04;15.65;;;11.50;;
25567;SDS011;13455;51.480;7.594;2023-08-30T02:51:30;16.65;;;11.65;;
25567;SDS011;13455;51.480;7.594;2023-08-30T02:53:56;15.50;;;11.90;;
25567;SDS011;13455;51.480;7.594;2023-08-30T02:56:22;15.23;;;12.10;;
25567;SDS011;13455;51.480;7.594;2023-08-30T02:58:48;17.33;;;12.52;;
25567;SDS011;13455;51.480;7.594;2023-08-30T03:01:14;15.15;;;11.98;;
25567;SDS011;13455;51.480;7.594;2023-08-30T03:03:39;16.33;;;12.70;;
25567;SDS011;13455;51.480;7.594;2023-08-30T03:06:05;16.92;;;13.13;;
25567;SDS011;13455;51.480;7.594;2023-08-30T03:08:31;17.38;;;12.45;;
25567;SDS011;13455;51.480;7.594;2023-08-30T03:11:07;17.20;;;12.43;;
25567;SDS011;13455;51.480;7.594;2023-08-30T03:13:36;16.60;;;12.63;;
25567;SDS011;13455;51.480;7.594;2023-08-30T03:16:09;16.48;;;12.90;;
25567;SDS011;13455;51.480;7.594;2023-08-30T03:18:36;15.93;;;12.68;;
25567;SDS011;13455;51.480;7.594;2023-08-30T03:21:02;16.27;;;12.32;;
25567;SDS011;13455;51.480;7.594;2023-08-30T03:23:27;17.27;;;13.07;;
25567;SDS011;13455;51.480;7.594;2023-08-30T03:25:53;17.73;;;13.25;;
25567;SDS011;13455;51.480;7.594;2023-08-30T03:28:18;17.47;;;13.50;;
25567;SDS011;13455;51.480;7.594;2023-08-30T03:30:44;19.17;;;13.40;;
25567;SDS011;13455;51.480;7.594;2023-08-30T03:33:09;17.15;;;12.95;;
25567;SDS011;13455;51.480;7.594;2023-08-30T03:35:35;17.73;;;13.23;;
25567;SDS011;13455;51.480;7.594;2023-08-30T03:38:01;19.97;;;14.37;;
25567;SDS011;13455;51.480;7.594;2023-08-30T03:40:26;18.10;;;13.77;;
25567;SDS011;13455;51.480;7.594;2023-08-30T03:42:52;18.90;;;14.70;;
25567;SDS011;13455;51.480;7.594;2023-08-30T03:45:18;18.23;;;14.18;;
25567;SDS011;13455;51.480;7.594;2023-08-30T03:47:43;17.63;;;14.37;;
25567;SDS011;13455;51.480;7.594;2023-08-30T03:50:09;20.07;;;14.97;;
25567;SDS011;13455;51.480;7.594;2023-08-30T03:52:35;21.10;;;15.73;;
25567;SDS011;13455;51.480;7.594;2023-08-30T03:55:00;24.50;;;16.80;;
25567;SDS011;13455;51.480;7.594;2023-08-30T03:57:27;24.33;;;17.17;;
25567;SDS011;13455;51.480;7.594;2023-08-30T03:59:52;22.17;;;17.20;;
25567;SDS011;13455;51.480;7.594;2023-08-30T04:02:18;23.50;;;17.30;;
25567;SDS011;13455;51.480;7.594;2023-08-30T04:04:46;21.40;;;16.92;;
25567;SDS011;13455;51.480;7.594;2023-08-30T04:07:12;21.98;;;16.90;;
25567;SDS011;13455;51.480;7.594;2023-08-30T04:09:38;22.65;;;17.33;;
25567;SDS011;13455;51.480;7.594;2023-08-30T04:12:03;20.50;;;16.03;;
25567;SDS011;13455;51.480;7.594;2023-08-30T04:14:30;22.52;;;16.63;;
25567;SDS011;13455;51.480;7.594;2023-08-30T04:16:55;22.95;;;16.50;;
25567;SDS011;13455;51.480;7.594;2023-08-30T04:19:21;21.15;;;16.40;;
25567;SDS011;13455;51.480;7.594;2023-08-30T04:21:46;24.13;;;17.43;;
25567;SDS011;13455;51.480;7.594;2023-08-30T04:24:12;22.20;;;16.90;;
25567;SDS011;13455;51.480;7.594;2023-08-30T04:26:39;22.70;;;16.83;;
25567;SDS011;13455;51.480;7.594;2023-08-30T04:29:05;22.80;;;17.40;;
25567;SDS011;13455;51.480;7.594;2023-08-30T04:31:30;22.70;;;16.85;;
25567;SDS011;13455;51.480;7.594;2023-08-30T04:33:56;22.77;;;18.08;;
25567;SDS011;13455;51.480;7.594;2023-08-30T04:36:22;24.80;;;17.35;;
25567;SDS011;13455;51.480;7.594;2023-08-30T04:38:48;24.65;;;17.35;;
25567;SDS011;13455;51.480;7.594;2023-08-30T04:41:13;22.63;;;16.37;;
25567;SDS011;13455;51.480;7.594;2023-08-30T04:43:39;22.00;;;16.43;;
25567;SDS011;13455;51.480;7.594;2023-08-30T04:46:04;23.63;;;17.33;;
25567;SDS011;13455;51.480;7.594;2023-08-30T04:48:30;24.00;;;17.77;;
25567;SDS011;13455;51.480;7.594;2023-08-30T04:51:03;24.10;;;17.87;;
25567;SDS011;13455;51.480;7.594;2023-08-30T04:53:29;22.73;;;17.07;;
25567;SDS011;13455;51.480;7.594;2023-08-30T04:55:55;23.00;;;17.75;;
25567;SDS011;13455;51.480;7.594;2023-08-30T04:58:21;22.90;;;18.67;;
25567;SDS011;13455;51.480;7.594;2023-08-30T05:00:47;23.20;;;17.77;;
25567;SDS011;13455;51.480;7.594;2023-08-30T05:03:13;25.20;;;17.85;;
25567;SDS011;13455;51.480;7.594;2023-08-30T05:05:38;24.17;;;17.40;;
25567;SDS011;13455;51.480;7.594;2023-08-30T05:08:04;22.20;;;17.37;;
25567;SDS011;13455;51.480;7.594;2023-08-30T05:10:29;24.27;;;17.93;;
25567;SDS011;13455;51.480;7.594;2023-08-30T05:12:55;22.03;;;18.30;;
25567;SDS011;13455;51.480;7.594;2023-08-30T05:15:21;26.00;;;19.70;;
25567;SDS011;13455;51.480;7.594;2023-08-30T05:17:46;25.98;;;20.13;;
25567;SDS011;13455;51.480;7.594;2023-08-30T05:20:12;26.55;;;19.92;;
25567;SDS011;13455;51.480;7.594;2023-08-30T05:22:38;24.63;;;19.63;;
25567;SDS011;13455;51.480;7.594;2023-08-30T05:25:04;24.70;;;18.63;;
25567;SDS011;13455;51.480;7.594;2023-08-30T05:27:29;24.87;;;19.37;;
25567;SDS011;13455;51.480;7.594;2023-08-30T05:29:55;23.93;;;19.00;;
25567;SDS011;13455;51.480;7.594;2023-08-30T05:32:21;24.87;;;19.20;;
25567;SDS011;13455;51.480;7.594;2023-08-30T05:34:47;25.80;;;18.60;;
25567;SDS011;13455;51.480;7.594;2023-08-30T05:37:13;23.00;;;17.63;;
25567;SDS011;13455;51.480;7.594;2023-08-30T05:39:38;23.80;;;18.37;;
25567;SDS011;13455;51.480;7.594;2023-08-30T05:42:04;25.50;;;18.75;;
25567;SDS011;13455;51.480;7.594;2023-08-30T05:44:30;26.30;;;20.05;;
25567;SDS011;13455;51.480;7.594;2023-08-30T05:46:56;27.37;;;20.57;;
25567;SDS011;13455;51.480;7.594;2023-08-30T05:49:21;27.60;;;20.40;;
25567;SDS011;13455;51.480;7.594;2023-08-30T05:51:47;28.70;;;20.70;;
25567;SDS011;13455;51.480;7.594;2023-08-30T05:54:13;26.58;;;21.08;;
25567;SDS011;13455;51.480;7.594;2023-08-30T05:56:39;28.75;;;21.70;;
25567;SDS011;13455;51.480;7.594;2023-08-30T05:59:04;28.58;;;21.83;;
25567;SDS011;13455;51.480;7.594;2023-08-30T06:01:30;28.17;;;21.38;;
25567;SDS011;13455;51.480;7.594;2023-08-30T06:03:55;25.53;;;20.57;;
25567;SDS011;13455;51.480;7.594;2023-08-30T06:06:21;27.20;;;20.60;;
25567;SDS011;13455;51.480;7.594;2023-08-30T06:08:47;27.25;;;20.77;;
25567;SDS011;13455;51.480;7.594;2023-08-30T06:11:12;27.77;;;20.08;;
25567;SDS011;13455;51.480;7.594;2023-08-30T06:13:39;27.55;;;20.67;;
25567;SDS011;13455;51.480;7.594;2023-08-30T06:16:04;26.97;;;21.03;;
25567;SDS011;13455;51.480;7.594;2023-08-30T06:18:30;26.33;;;21.55;;
25567;SDS011;13455;51.480;7.594;2023-08-30T06:21:00;28.13;;;22.70;;
25567;SDS011;13455;51.480;7.594;2023-08-30T06:23:26;29.55;;;22.92;;
25567;SDS011;13455;51.480;7.594;2023-08-30T06:25:57;28.80;;;23.48;;
25567;SDS011;13455;51.480;7.594;2023-08-30T06:28:23;29.77;;;23.60;;
25567;SDS011;13455;51.480;7.594;2023-08-30T06:30:49;28.47;;;23.17;;
25567;SDS011;13455;51.480;7.594;2023-08-30T06:33:15;31.40;;;23.77;;
25567;SDS011;13455;51.480;7.594;2023-08-30T06:35:41;30.67;;;23.30;;
25567;SDS011;13455;51.480;7.594;2023-08-30T06:38:07;29.57;;;23.47;;
25567;SDS011;13455;51.480;7.594;2023-08-30T06:40:33;32.03;;;22.67;;
25567;SDS011;13455;51.480;7.594;2023-08-30T06:42:59;30.40;;;23.40;;
25567;SDS011;13455;51.480;7.594;2023-08-30T06:45:24;28.17;;;22.65;;
25567;SDS011;13455;51.480;7.594;2023-08-30T06:47:50;28.50;;;22.70;;
25567;SDS011;13455;51.480;7.594;2023-08-30T06:50:17;32.50;;;23.08;;
25567;SDS011;13455;51.480;7.594;2023-08-30T06:52:43;28.23;;;21.90;;
25567;SDS011;13455;51.480;7.594;2023-08-30T06:55:09;30.70;;;22.20;;
25567;SDS011;13455;51.480;7.594;2023-08-30T06:57:35;26.65;;;22.05;;
25567;SDS011;13455;51.480;7.594;2023-08-30T07:00:00;27.35;;;22.30;;
25567;SDS011;13455;51.480;7.594;2023-08-30T07:02:32;28.65;;;21.42;;
25567;SDS011;13455;51.480;7.594;2023-08-30T07:04:59;26.97;;;20.63;;
25567;SDS011;13455;51.480;7.594;2023-08-30T07:07:25;26.23;;;20.53;;
25567;SDS011;13455;51.480;7.594;2023-08-30T07:09:51;27.13;;;21.53;;
25567;SDS011;13455;51.480;7.594;2023-08-30T07:12:16;30.95;;;23.17;;
25567;SDS011;13455;51.480;7.594;2023-08-30T07:14:42;27.90;;;22.63;;
25567;SDS011;13455;51.480;7.594;2023-08-30T07:17:08;29.83;;;22.47;;
25567;SDS011;13455;51.480;7.594;2023-08-30T07:19:33;28.23;;;22.10;;
25567;SDS011;13455;51.480;7.594;2023-08-30T07:21:59;28.83;;;22.52;;
25567;SDS011;13455;51.480;7.594;2023-08-30T07:24:25;29.75;;;21.42;;
25567;SDS011;13455;51.480;7.594;2023-08-30T07:26:50;32.10;;;22.50;;
25567;SDS011;13455;51.480;7.594;2023-08-30T07:29:16;28.70;;;21.47;;
25567;SDS011;13455;51.480;7.594;2023-08-30T07:31:41;29.63;;;22.25;;
25567;SDS011;13455;51.480;7.594;2023-08-30T07:34:07;31.05;;;22.73;;
25567;SDS011;13455;51.480;7.594;2023-08-30T07:36:33;30.30;;;22.00;;
25567;SDS011;13455;51.480;7.594;2023-08-30T07:38:59;29.33;;;22.33;;
25567;SDS011;13455;51.480;7.594;2023-08-30T07:41:24;26.60;;;21.43;;
25567;SDS011;13455;51.480;7.594;2023-08-30T07:43:50;27.45;;;21.75;;
25567;SDS011;13455;51.480;7.594;2023-08-30T07:46:15;25.83;;;20.20;;
25567;SDS011;13455;51.480;7.594;2023-08-30T07:48:41;25.80;;;20.60;;
25567;SDS011;13455;51.480;7.594;2023-08-30T07:51:07;25.42;;;19.58;;
25567;SDS011;13455;51.480;7.594;2023-08-30T07:53:32;25.05;;;19.40;;
25567;SDS011;13455;51.480;7.594;2023-08-30T07:55:58;24.33;;;18.20;;
25567;SDS011;13455;51.480;7.594;2023-08-30T07:58:23;22.67;;;16.77;;
25567;SDS011;13455;51.480;7.594;2023-08-30T08:00:52;20.90;;;15.32;;
25567;SDS011;13455;51.480;7.594;2023-08-30T08:03:21;17.90;;;15.05;;
25567;SDS011;13455;51.480;7.594;2023-08-30T08:05:47;18.25;;;14.13;;
25567;SDS011;13455;51.480;7.594;2023-08-30T08:08:13;20.42;;;14.70;;
25567;SDS011;13455;51.480;7.594;2023-08-30T08:10:39;17.92;;;13.70;;
25567;SDS011;13455;51.480;7.594;2023-08-30T08:13:06;18.30;;;13.70;;
25567;SDS011;13455;51.480;7.594;2023-08-30T08:15:32;18.23;;;13.43;;
25567;SDS011;13455;51.480;7.594;2023-08-30T08:17:59;18.33;;;12.40;;
25567;SDS011;13455;51.480;7.594;2023-08-30T08:20:25;16.50;;;12.00;;
25567;SDS011;13455;51.480;7.594;2023-08-30T08:22:51;14.60;;;11.57;;
25567;SDS011;13455;51.480;7.594;2023-08-30T08:25:17;14.40;;;10.83;;
25567;SDS011;13455;51.480;7.594;2023-08-30T08:27:43;12.80;;;10.35;;
25567;SDS011;13455;51.480;7.594;2023-08-30T08:30:09;13.15;;;9.68;;
25567;SDS011;13455;51.480;7.594;2023-08-30T08:32:36;12.32;;;9.23;;
25567;SDS011;13455;51.480;7.594;2023-08-30T08:35:02;11.10;;;7.95;;
25567;SDS011;13455;51.480;7.594;2023-08-30T08:37:28;11.57;;;7.95;;
25567;SDS011;13455;51.480;7.594;2023-08-30T08:39:54;10.23;;;7.22;;
25567;SDS011;13455;51.480;7.594;2023-08-30T08:42:20;9.23;;;7.15;;
25567;SDS011;13455;51.480;7.594;2023-08-30T08:44:46;10.23;;;7.40;;
25567;SDS011;13455;51.480;7.594;2023-08-30T08:47:14;10.97;;;7.00;;
25567;SDS011;13455;51.480;7.594;2023-08-30T08:49:40;10.70;;;6.78;;
25567;SDS011;13455;51.480;7.594;2023-08-30T08:52:07;8.70;;;6.60;;
25567;SDS011;13455;51.480;7.594;2023-08-30T08:54:33;8.77;;;6.45;;
25567;SDS011;13455;51.480;7.594;2023-08-30T08:56:58;10.95;;;6.88;;
25567;SDS011;13455;51.480;7.594;2023-08-30T08:59:25;10.48;;;6.45;;
25567;SDS011;13455;51.480;7.594;2023-08-30T09:01:51;8.98;;;5.90;;
25567;SDS011;13455;51.480;7.594;2023-08-30T09:04:17;9.48;;;6.20;;
25567;SDS011;13455;51.480;7.594;2023-08-30T09:06:44;9.23;;;5.78;;
25567;SDS011;13455;51.480;7.594;2023-08-30T09:09:10;9.50;;;5.70;;
25567;SDS011;13455;51.480;7.594;2023-08-30T09:11:36;7.72;;;5.25;;
25567;SDS011;13455;51.480;7.594;2023-08-30T09:14:02;9.40;;;4.90;;
25567;SDS011;13455;51.480;7.594;2023-08-30T09:16:28;8.60;;;4.60;;
25567;SDS011;13455;51.480;7.594;2023-08-30T09:19:00;7.67;;;3.70;;
25567;SDS011;13455;51.480;7.594;2023-08-30T09:21:26;6.60;;;3.60;;
25567;SDS011;13455;51.480;7.594;2023-08-30T09:26:28;5.40;;;3.50;;
25567;SDS011;13455;51.480;7.594;2023-08-30T09:28:56;6.80;;;3.33;;
25567;SDS011;13455;51.480;7.594;2023-08-30T09:31:33;5.47;;;3.15;;
25567;SDS011;13455;51.480;7.594;2023-08-30T09:33:59;6.07;;;3.42;;
25567;SDS011;13455;51.480;7.594;2023-08-30T09:36:26;6.63;;;3.58;;
25567;SDS011;13455;51.480;7.594;2023-08-30T09:38:52;7.95;;;3.58;;
25567;SDS011;13455;51.480;7.594;2023-08-30T09:41:18;6.23;;;3.60;;
25567;SDS011;13455;51.480;7.594;2023-08-30T09:43:43;5.43;;;3.13;;
25567;SDS011;13455;51.480;7.594;2023-08-30T09:46:09;5.65;;;3.22;;
25567;SDS011;13455;51.480;7.594;2023-08-30T09:48:35;5.40;;;3.40;;
25567;SDS011;13455;51.480;7.594;2023-08-30T09:51:03;5.80;;;3.08;;
25567;SDS011;13455;51.480;7.594;2023-08-30T09:53:33;7.20;;;3.17;;
25567;SDS011;13455;51.480;7.594;2023-08-30T09:56:05;4.30;;;2.78;;
25567;SDS011;13455;51.480;7.594;2023-08-30T09:58:33;5.25;;;3.10;;
25567;SDS011;13455;51.480;7.594;2023-08-30T10:00:59;4.53;;;2.83;;
25567;SDS011;13455;51.480;7.594;2023-08-30T10:03:27;7.65;;;3.08;;
25567;SDS011;13455;51.480;7.594;2023-08-30T10:05:53;5.93;;;2.87;;
25567;SDS011;13455;51.480;7.594;2023-08-30T10:08:19;5.77;;;3.23;;
25567;SDS011;13455;51.480;7.594;2023-08-30T10:10:46;5.28;;;3.10;;
25567;SDS011;13455;51.480;7.594;2023-08-30T10:13:12;6.32;;;3.42;;
25567;SDS011;13455;51.480;7.594;2023-08-30T10:15:40;5.90;;;2.80;;
25567;SDS011;13455;51.480;7.594;2023-08-30T10:18:11;6.70;;;3.05;;
25567;SDS011;13455;51.480;7.594;2023-08-30T10:20:40;5.73;;;3.03;;
25567;SDS011;13455;51.480;7.594;2023-08-30T10:23:06;6.10;;;2.90;;
25567;SDS011;13455;51.480;7.594;2023-08-30T10:25:33;5.53;;;2.97;;
25567;SDS011;13455;51.480;7.594;2023-08-30T10:27:59;4.30;;;2.70;;
25567;SDS011;13455;51.480;7.594;2023-08-30T10:30:26;5.88;;;2.97;;
25567;SDS011;13455;51.480;7.594;2023-08-30T10:32:52;5.40;;;2.75;;
25567;SDS011;13455;51.480;7.594;2023-08-30T10:35:18;7.03;;;3.37;;
25567;SDS011;13455;51.480;7.594;2023-08-30T10:37:54;5.35;;;2.92;;
25567;SDS011;13455;51.480;7.594;2023-08-30T10:40:21;5.10;;;2.92;;
25567;SDS011;13455;51.480;7.594;2023-08-30T10:42:47;6.05;;;3.05;;
25567;SDS011;13455;51.480;7.594;2023-08-30T10:45:23;5.93;;;3.05;;
25567;SDS011;13455;51.480;7.594;2023-08-30T10:47:53;5.80;;;3.10;;
25567;SDS011;13455;51.480;7.594;2023-08-30T10:50:26;7.37;;;3.03;;
25567;SDS011;13455;51.480;7.594;2023-08-30T10:52:57;4.70;;;2.72;;
25567;SDS011;13455;51.480;7.594;2023-08-30T10:55:23;5.72;;;3.10;;
25567;SDS011;13455;51.480;7.594;2023-08-30T10:57:58;6.50;;;3.10;;
25567;SDS011;13455;51.480;7.594;2023-08-30T11:00:28;8.85;;;3.38;;
25567;SDS011;13455;51.480;7.594;2023-08-30T11:02:54;6.35;;;3.83;;
25567;SDS011;13455;51.480;7.594;2023-08-30T11:05:21;7.38;;;4.38;;
25567;SDS011;13455;51.480;7.594;2023-08-30T11:07:48;7.20;;;4.60;;
25567;SDS011;13455;51.480;7.594;2023-08-30T11:10:15;7.30;;;4.95;;
25567;SDS011;13455;51.480;7.594;2023-08-30T11:12:45;8.07;;;5.10;;
25567;SDS011;13455;51.480;7.594;2023-08-30T11:15:14;8.80;;;5.30;;
25567;SDS011;13455;51.480;7.594;2023-08-30T11:17:39;7.45;;;5.03;;
25567;SDS011;13455;51.480;7.594;2023-08-30T11:20:06;9.85;;;5.35;;
25567;SDS011;13455;51.480;7.594;2023-08-30T11:22:34;9.07;;;6.03;;
25567;SDS011;13455;51.480;7.594;2023-08-30T11:25:00;10.40;;;5.75;;
25567;SDS011;13455;51.480;7.594;2023-08-30T11:27:26;9.65;;;6.00;;
25567;SDS011;13455;51.480;7.594;2023-08-30T11:29:52;8.40;;;5.97;;
25567;SDS011;13455;51.480;7.594;2023-08-30T11:32:17;8.07;;;6.00;;
25567;SDS011;13455;51.480;7.594;2023-08-30T11:34:54;8.52;;;5.80;;
25567;SDS011;13455;51.480;7.594;2023-08-30T11:37:21;9.17;;;5.13;;
25567;SDS011;13455;51.480;7.594;2023-08-30T11:39:51;6.97;;;5.23;;
25567;SDS011;13455;51.480;7.594;2023-08-30T11:42:17;8.13;;;5.28;;
25567;SDS011;13455;51.480;7.594;2023-08-30T11:44:44;7.55;;;5.10;;
25567;SDS011;13455;51.480;7.594;2023-08-30T11:47:10;6.97;;;5.00;;
25567;SDS011;13455;51.480;7.594;2023-08-30T11:49:35;6.43;;;4.73;;
25567;SDS011;13455;51.480;7.594;2023-08-30T11:52:01;8.07;;;4.50;;
25567;SDS011;13455;51.480;7.594;2023-08-30T11:54:28;6.63;;;4.97;;
25567;SDS011;13455;51.480;7.594;2023-08-30T11:56:53;7.82;;;4.63;;
25567;SDS011;13455;51.480;7.594;2023-08-30T11:59:22;6.30;;;4.70;;
25567;SDS011;13455;51.480;7.594;2023-08-30T12:01:48;7.13;;;4.65;;
25567;SDS011;13455;51.480;7.594;2023-08-30T12:04:14;7.70;;;4.10;;
25567;SDS011;13455;51.480;7.594;2023-08-30T12:06:40;9.00;;;4.60;;
25567;SDS011;13455;51.480;7.594;2023-08-30T12:09:11;6.80;;;4.10;;
25567;SDS011;13455;51.480;7.594;2023-08-30T12:11:37;6.93;;;4.10;;
25567;SDS011;13455;51.480;7.594;2023-08-30T12:14:02;8.33;;;4.10;;
25567;SDS011;13455;51.480;7.594;2023-08-30T12:16:29;5.53;;;4.30;;
25567;SDS011;13455;51.480;7.594;2023-08-30T12:18:55;6.13;;;4.30;;
25567;SDS011;13455;51.480;7.594;2023-08-30T12:21:21;5.88;;;4.80;;
25567;SDS011;13455;51.480;7.594;2023-08-30T12:23:47;8.27;;;4.97;;
25567;SDS011;13455;51.480;7.594;2023-08-30T12:26:13;7.18;;;4.90;;
25567;SDS011;13455;51.480;7.594;2023-08-30T12:28:39;7.10;;;4.90;;
25567;SDS011;13455;51.480;7.594;2023-08-30T12:31:09;8.07;;;5.10;;
25567;SDS011;13455;51.480;7.594;2023-08-30T12:33:35;7.68;;;5.20;;
25567;SDS011;13455;51.480;7.594;2023-08-30T12:36:01;8.32;;;5.57;;
25567;SDS011;13455;51.480;7.594;2023-08-30T12:38:29;9.05;;;5.57;;
25567;SDS011;13455;51.480;7.594;2023-08-30T12:40:55;7.78;;;5.53;;
25567;SDS011;13455;51.480;7.594;2023-08-30T12:43:22;7.43;;;5.10;;
25567;SDS011;13455;51.480;7.594;2023-08-30T12:45:48;8.65;;;4.90;;
25567;SDS011;13455;51.480;7.594;2023-08-30T12:48:15;6.63;;;4.53;;
25567;SDS011;13455;51.480;7.594;2023-08-30T12:50:46;6.13;;;4.40;;
25567;SDS011;13455;51.480;7.594;2023-08-30T12:53:13;7.57;;;3.70;;
25567;SDS011;13455;51.480;7.594;2023-08-30T12:55:41;7.53;;;3.17;;
25567;SDS011;13455;51.480;7.594;2023-08-30T12:58:08;4.68;;;3.08;;
25567;SDS011;13455;51.480;7.594;2023-08-30T13:00:34;6.32;;;3.15;;
25567;SDS011;13455;51.480;7.594;2023-08-30T13:03:00;6.80;;;3.17;;
25567;SDS011;13455;51.480;7.594;2023-08-30T13:05:28;4.35;;;3.20;;
25567;SDS011;13455;51.480;7.594;2023-08-30T13:07:56;5.80;;;4.75;;
25567;SDS011;13455;51.480;7.594;2023-08-30T13:10:22;7.80;;;6.82;;
25567;SDS011;13455;51.480;7.594;2023-08-30T13:12:48;6.65;;;5.00;;
25567;SDS011;13455;51.480;7.594;2023-08-30T13:15:14;4.25;;;3.42;;
25567;SDS011;13455;51.480;7.594;2023-08-30T13:17:40;3.00;;;2.30;;
25567;SDS011;13455;51.480;7.594;2023-08-30T13:20:06;4.00;;;1.95;;
25567;SDS011;13455;51.480;7.594;2023-08-30T13:22:33;3.42;;;2.00;;
25567;SDS011;13455;51.480;7.594;2023-08-30T13:24:59;3.70;;;2.00;;
25567;SDS011;13455;51.480;7.594;2023-08-30T13:27:25;4.07;;;2.00;;
25567;SDS011;13455;51.480;7.594;2023-08-30T13:29:51;3.85;;;1.92;;
25567;SDS011;13455;51.480;7.594;2023-08-30T13:32:17;2.65;;;1.88;;
25567;SDS011;13455;51.480;7.594;2023-08-30T13:34:43;3.63;;;2.47;;
25567;SDS011;13455;51.480;7.594;2023-08-30T13:37:10;4.38;;;2.30;;
25567;SDS011;13455;51.480;7.594;2023-08-30T13:39:37;4.10;;;2.13;;
25567;SDS011;13455;51.480;7.594;2023-08-30T13:42:03;2.75;;;1.52;;
25567;SDS011;13455;51.480;7.594;2023-08-30T13:44:29;3.72;;;1.77;;
25567;SDS011;13455;51.480;7.594;2023-08-30T13:46:55;4.50;;;3.10;;
25567;SDS011;13455;51.480;7.594;2023-08-30T13:49:20;6.37;;;3.80;;
25567;SDS011;13455;51.480;7.594;2023-08-30T13:51:46;5.47;;;3.80;;
25567;SDS011;13455;51.480;7.594;2023-08-30T13:54:11;6.37;;;3.40;;
25567;SDS011;13455;51.480;7.594;2023-08-30T13:56:37;4.37;;;2.93;;
25567;SDS011;13455;51.480;7.594;2023-08-30T13:59:03;3.85;;;2.60;;
25567;SDS011;13455;51.480;7.594;2023-08-30T14:01:31;3.08;;;2.10;;
25567;SDS011;13455;51.480;7.594;2023-08-30T14:03:57;3.03;;;2.08;;
25567;SDS011;13455;51.480;7.594;2023-08-30T14:06:23;2.67;;;1.80;;
25567;SDS011;13455;51.480;7.594;2023-08-30T14:08:48;3.83;;;1.80;;
25567;SDS011;13455;51.480;7.594;2023-08-30T14:11:14;2.53;;;1.70;;
25567;SDS011;13455;51.480;7.594;2023-08-30T14:13:40;2.67;;;1.50;;
25567;SDS011;13455;51.480;7.594;2023-08-30T14:16:05;4.95;;;1.77;;
25567;SDS011;13455;51.480;7.594;2023-08-30T14:18:31;5.67;;;1.93;;
25567;SDS011;13455;51.480;7.594;2023-08-30T14:20:57;2.00;;;1.40;;
25567;SDS011;13455;51.480;7.594;2023-08-30T14:23:24;3.72;;;1.58;;
25567;SDS011;13455;51.480;7.594;2023-08-30T14:26:00;2.53;;;1.80;;
25567;SDS011;13455;51.480;7.594;2023-08-30T14:28:37;2.70;;;1.70;;
25567;SDS011;13455;51.480;7.594;2023-08-30T14:31:09;3.03;;;1.58;;
25567;SDS011;13455;51.480;7.594;2023-08-30T14:33:36;4.22;;;1.80;;
25567;SDS011;13455;51.480;7.594;2023-08-30T14:36:02;3.33;;;1.70;;
25567;SDS011;13455;51.480;7.594;2023-08-30T14:38:28;3.60;;;1.70;;
25567;SDS011;13455;51.480;7.594;2023-08-30T14:40:58;3.42;;;1.70;;
25567;SDS011;13455;51.480;7.594;2023-08-30T14:43:24;2.65;;;1.60;;